sensor_id;sensor_type;location;lat;lon;timestamp;P1;durP1;ratioP1;P2;durP2;ratioP2
6143;SDS011;3103;49.492;8.474;2023-03-03T00:00:05;34.63;;;17.23;;
6143;SDS011;3103;49.492;8.474;2023-03-03T00:02:39;38.67;;;20.03;;
6143;SDS011;3103;49.492;8.474;2023-03-03T00:05:06;36.23;;;20.70;;
6143;SDS011;3103;49.492;8.474;2023-03-03T00:07:33;26.80;;;17.37;;
6143;SDS011;3103;49.492;8.474;2023-03-03T00:10:00;28.50;;;17.30;;
6143;SDS011;3103;49.492;8.474;2023-03-03T00:12:30;31.00;;;18.53;;
6143;SDS011;3103;49.492;8.474;2023-03-03T00:14:57;29.87;;;17.87;;
6143;SDS011;3103;49.492;8.474;2023-03-03T00:17:24;28.67;;;17.43;;
6143;SDS011;3103;49.492;8.474;2023-03-03T00:19:53;29.90;;;16.90;;
6143;SDS011;3103;49.492;8.474;2023-03-03T00:22:30;30.53;;;18.33;;
6143;SDS011;3103;49.492;8.474;2023-03-03T00:27:47;32.40;;;19.70;;
6143;SDS011;3103;49.492;8.474;2023-03-03T00:30:19;29.70;;;18.20;;
6143;SDS011;3103;49.492;8.474;2023-03-03T00:32:51;28.07;;;16.30;;
6143;SDS011;3103;49.492;8.474;2023-03-03T00:35:28;31.60;;;17.40;;
6143;SDS011;3103;49.492;8.474;2023-03-03T00:38:01;29.97;;;18.87;;
6143;SDS011;3103;49.492;8.474;2023-03-03T00:40:38;36.27;;;18.87;;
6143;SDS011;3103;49.492;8.474;2023-03-03T00:43:22;30.70;;;17.93;;
6143;SDS011;3103;49.492;8.474;2023-03-03T00:45:51;30.10;;;16.93;;
6143;SDS011;3103;49.492;8.474;2023-03-03T00:50:48;31.10;;;16.90;;
6143;SDS011;3103;49.492;8.474;2023-03-03T00:53:16;25.97;;;16.60;;
6143;SDS011;3103;49.492;8.474;2023-03-03T00:55:45;31.47;;;17.47;;
6143;SDS011;3103;49.492;8.474;2023-03-03T00:58:13;27.97;;;17.33;;
6143;SDS011;3103;49.492;8.474;2023-03-03T01:00:43;31.67;;;17.20;;
6143;SDS011;3103;49.492;8.474;2023-03-03T01:03:14;32.47;;;17.27;;
6143;SDS011;3103;49.492;8.474;2023-03-03T01:05:43;36.03;;;20.10;;
6143;SDS011;3103;49.492;8.474;2023-03-03T01:08:11;27.53;;;16.27;;
6143;SDS011;3103;49.492;8.474;2023-03-03T01:10:40;30.70;;;17.53;;
6143;SDS011;3103;49.492;8.474;2023-03-03T01:13:09;29.97;;;15.90;;
6143;SDS011;3103;49.492;8.474;2023-03-03T01:15:37;27.20;;;16.43;;
6143;SDS011;3103;49.492;8.474;2023-03-03T01:18:05;26.40;;;16.10;;
6143;SDS011;3103;49.492;8.474;2023-03-03T01:20:33;31.03;;;15.60;;
6143;SDS011;3103;49.492;8.474;2023-03-03T01:23:00;28.80;;;15.87;;
6143;SDS011;3103;49.492;8.474;2023-03-03T01:25:26;29.83;;;17.60;;
6143;SDS011;3103;49.492;8.474;2023-03-03T01:27:54;33.57;;;16.80;;
6143;SDS011;3103;49.492;8.474;2023-03-03T01:30:21;27.07;;;16.73;;
6143;SDS011;3103;49.492;8.474;2023-03-03T01:32:48;34.67;;;18.23;;
6143;SDS011;3103;49.492;8.474;2023-03-03T01:35:15;29.03;;;16.47;;
6143;SDS011;3103;49.492;8.474;2023-03-03T01:37:42;28.17;;;16.83;;
6143;SDS011;3103;49.492;8.474;2023-03-03T01:40:17;30.73;;;17.63;;
6143;SDS011;3103;49.492;8.474;2023-03-03T01:42:45;28.17;;;16.57;;
6143;SDS011;3103;49.492;8.474;2023-03-03T01:45:23;27.77;;;15.57;;
6143;SDS011;3103;49.492;8.474;2023-03-03T01:47:58;33.63;;;16.03;;
6143;SDS011;3103;49.492;8.474;2023-03-03T01:53:15;23.67;;;13.60;;
6143;SDS011;3103;49.492;8.474;2023-03-03T01:55:45;25.37;;;13.93;;
6143;SDS011;3103;49.492;8.474;2023-03-03T01:58:14;23.30;;;13.13;;
6143;SDS011;3103;49.492;8.474;2023-03-03T02:00:54;22.07;;;12.03;;
6143;SDS011;3103;49.492;8.474;2023-03-03T02:03:27;23.57;;;12.73;;
6143;SDS011;3103;49.492;8.474;2023-03-03T02:05:56;20.87;;;12.97;;
6143;SDS011;3103;49.492;8.474;2023-03-03T02:08:36;21.83;;;12.63;;
6143;SDS011;3103;49.492;8.474;2023-03-03T02:11:08;19.70;;;11.53;;
6143;SDS011;3103;49.492;8.474;2023-03-03T02:13:36;17.33;;;11.00;;
6143;SDS011;3103;49.492;8.474;2023-03-03T02:16:03;18.90;;;11.63;;
6143;SDS011;3103;49.492;8.474;2023-03-03T02:18:30;19.83;;;11.73;;
6143;SDS011;3103;49.492;8.474;2023-03-03T02:21:00;20.30;;;11.23;;
6143;SDS011;3103;49.492;8.474;2023-03-03T02:26:16;24.50;;;11.63;;
6143;SDS011;3103;49.492;8.474;2023-03-03T02:28:55;24.63;;;12.47;;
6143;SDS011;3103;49.492;8.474;2023-03-03T02:31:23;22.30;;;10.93;;
6143;SDS011;3103;49.492;8.474;2023-03-03T02:33:53;17.87;;;10.63;;
6143;SDS011;3103;49.492;8.474;2023-03-03T02:36:22;15.27;;;9.77;;
6143;SDS011;3103;49.492;8.474;2023-03-03T02:39:02;15.47;;;9.43;;
6143;SDS011;3103;49.492;8.474;2023-03-03T02:44:06;14.77;;;9.73;;
6143;SDS011;3103;49.492;8.474;2023-03-03T02:46:35;12.40;;;8.60;;
6143;SDS011;3103;49.492;8.474;2023-03-03T02:49:05;18.27;;;9.43;;
6143;SDS011;3103;49.492;8.474;2023-03-03T02:51:34;15.03;;;8.97;;
6143;SDS011;3103;49.492;8.474;2023-03-03T02:54:01;13.57;;;8.47;;
6143;SDS011;3103;49.492;8.474;2023-03-03T02:56:31;14.90;;;9.47;;
6143;SDS011;3103;49.492;8.474;2023-03-03T02:58:58;14.70;;;8.67;;
6143;SDS011;3103;49.492;8.474;2023-03-03T03:01:26;14.67;;;8.60;;
6143;SDS011;3103;49.492;8.474;2023-03-03T03:03:53;13.20;;;8.60;;
6143;SDS011;3103;49.492;8.474;2023-03-03T03:06:21;12.00;;;8.47;;
6143;SDS011;3103;49.492;8.474;2023-03-03T03:08:48;14.03;;;8.63;;
6143;SDS011;3103;49.492;8.474;2023-03-03T03:11:15;13.77;;;8.27;;
6143;SDS011;3103;49.492;8.474;2023-03-03T03:13:42;13.87;;;8.07;;
6143;SDS011;3103;49.492;8.474;2023-03-03T03:16:08;12.93;;;7.60;;
6143;SDS011;3103;49.492;8.474;2023-03-03T03:18:35;13.17;;;8.63;;
6143;SDS011;3103;49.492;8.474;2023-03-03T03:21:09;11.13;;;7.73;;
6143;SDS011;3103;49.492;8.474;2023-03-03T03:23:39;14.27;;;8.00;;
6143;SDS011;3103;49.492;8.474;2023-03-03T03:26:06;19.13;;;8.87;;
6143;SDS011;3103;49.492;8.474;2023-03-03T03:28:34;14.60;;;8.00;;
6143;SDS011;3103;49.492;8.474;2023-03-03T03:31:02;11.90;;;7.60;;
6143;SDS011;3103;49.492;8.474;2023-03-03T03:33:32;12.23;;;7.63;;
6143;SDS011;3103;49.492;8.474;2023-03-03T03:35:59;11.20;;;7.70;;
6143;SDS011;3103;49.492;8.474;2023-03-03T03:38:26;14.07;;;7.77;;
6143;SDS011;3103;49.492;8.474;2023-03-03T03:40:55;12.90;;;8.80;;
6143;SDS011;3103;49.492;8.474;2023-03-03T03:43:21;13.10;;;8.10;;
6143;SDS011;3103;49.492;8.474;2023-03-03T03:45:48;11.13;;;7.67;;
6143;SDS011;3103;49.492;8.474;2023-03-03T03:48:16;15.53;;;7.60;;
6143;SDS011;3103;49.492;8.474;2023-03-03T03:50:46;11.63;;;7.40;;
6143;SDS011;3103;49.492;8.474;2023-03-03T03:53:14;12.07;;;8.13;;
6143;SDS011;3103;49.492;8.474;2023-03-03T03:55:42;12.37;;;7.83;;
6143;SDS011;3103;49.492;8.474;2023-03-03T03:58:14;14.63;;;7.27;;
6143;SDS011;3103;49.492;8.474;2023-03-03T04:00:47;10.40;;;7.17;;
6143;SDS011;3103;49.492;8.474;2023-03-03T04:03:15;9.93;;;7.20;;
6143;SDS011;3103;49.492;8.474;2023-03-03T04:05:44;10.10;;;7.33;;
6143;SDS011;3103;49.492;8.474;2023-03-03T04:08:11;11.80;;;7.17;;
6143;SDS011;3103;49.492;8.474;2023-03-03T04:10:40;11.53;;;7.50;;
6143;SDS011;3103;49.492;8.474;2023-03-03T04:13:08;10.60;;;7.07;;
6143;SDS011;3103;49.492;8.474;2023-03-03T04:15:35;11.77;;;7.13;;
6143;SDS011;3103;49.492;8.474;2023-03-03T04:18:02;13.13;;;7.37;;
6143;SDS011;3103;49.492;8.474;2023-03-03T04:20:29;13.60;;;7.60;;
6143;SDS011;3103;49.492;8.474;2023-03-03T04:22:56;11.40;;;7.03;;
6143;SDS011;3103;49.492;8.474;2023-03-03T04:25:24;10.50;;;7.23;;
6143;SDS011;3103;49.492;8.474;2023-03-03T04:27:52;15.07;;;8.47;;
6143;SDS011;3103;49.492;8.474;2023-03-03T04:30:21;15.93;;;9.00;;
6143;SDS011;3103;49.492;8.474;2023-03-03T04:32:51;13.40;;;8.10;;
6143;SDS011;3103;49.492;8.474;2023-03-03T04:35:21;11.73;;;7.87;;
6143;SDS011;3103;49.492;8.474;2023-03-03T04:37:47;14.10;;;8.60;;
6143;SDS011;3103;49.492;8.474;2023-03-03T04:40:15;12.53;;;7.77;;
6143;SDS011;3103;49.492;8.474;2023-03-03T04:42:46;12.43;;;7.93;;
6143;SDS011;3103;49.492;8.474;2023-03-03T04:45:12;12.93;;;8.00;;
6143;SDS011;3103;49.492;8.474;2023-03-03T04:47:40;13.80;;;8.20;;
6143;SDS011;3103;49.492;8.474;2023-03-03T04:50:08;12.73;;;7.97;;
6143;SDS011;3103;49.492;8.474;2023-03-03T04:52:36;13.80;;;8.60;;
6143;SDS011;3103;49.492;8.474;2023-03-03T04:55:05;14.63;;;9.00;;
6143;SDS011;3103;49.492;8.474;2023-03-03T04:57:37;12.63;;;8.63;;
6143;SDS011;3103;49.492;8.474;2023-03-03T05:00:04;12.80;;;8.83;;
6143;SDS011;3103;49.492;8.474;2023-03-03T05:02:32;19.60;;;9.67;;
6143;SDS011;3103;49.492;8.474;2023-03-03T05:05:00;16.40;;;9.60;;
6143;SDS011;3103;49.492;8.474;2023-03-03T05:07:28;19.13;;;9.87;;
6143;SDS011;3103;49.492;8.474;2023-03-03T05:09:55;15.87;;;9.83;;
6143;SDS011;3103;49.492;8.474;2023-03-03T05:12:21;15.87;;;9.40;;
6143;SDS011;3103;49.492;8.474;2023-03-03T05:14:48;16.50;;;9.47;;
6143;SDS011;3103;49.492;8.474;2023-03-03T05:17:15;14.37;;;9.33;;
6143;SDS011;3103;49.492;8.474;2023-03-03T05:19:41;20.13;;;9.47;;
6143;SDS011;3103;49.492;8.474;2023-03-03T05:22:08;16.13;;;10.63;;
6143;SDS011;3103;49.492;8.474;2023-03-03T05:24:35;16.40;;;10.73;;
6143;SDS011;3103;49.492;8.474;2023-03-03T05:27:02;19.60;;;10.27;;
6143;SDS011;3103;49.492;8.474;2023-03-03T05:29:29;17.60;;;10.67;;
6143;SDS011;3103;49.492;8.474;2023-03-03T05:31:57;15.83;;;10.43;;
6143;SDS011;3103;49.492;8.474;2023-03-03T05:34:23;16.37;;;10.53;;
6143;SDS011;3103;49.492;8.474;2023-03-03T05:36:50;18.80;;;11.97;;
6143;SDS011;3103;49.492;8.474;2023-03-03T05:39:17;17.17;;;11.43;;
6143;SDS011;3103;49.492;8.474;2023-03-03T05:41:44;18.43;;;10.53;;
6143;SDS011;3103;49.492;8.474;2023-03-03T05:44:10;21.07;;;11.03;;
6143;SDS011;3103;49.492;8.474;2023-03-03T05:46:38;16.43;;;10.67;;
6143;SDS011;3103;49.492;8.474;2023-03-03T05:49:05;16.47;;;11.30;;
6143;SDS011;3103;49.492;8.474;2023-03-03T05:51:31;19.13;;;11.77;;
6143;SDS011;3103;49.492;8.474;2023-03-03T05:53:58;19.00;;;12.93;;
6143;SDS011;3103;49.492;8.474;2023-03-03T05:56:25;25.33;;;12.30;;
6143;SDS011;3103;49.492;8.474;2023-03-03T05:58:51;22.23;;;11.80;;
6143;SDS011;3103;49.492;8.474;2023-03-03T06:01:18;25.17;;;12.57;;
6143;SDS011;3103;49.492;8.474;2023-03-03T06:03:45;21.40;;;11.20;;
6143;SDS011;3103;49.492;8.474;2023-03-03T06:06:11;28.20;;;11.67;;
6143;SDS011;3103;49.492;8.474;2023-03-03T06:08:39;22.60;;;12.33;;
6143;SDS011;3103;49.492;8.474;2023-03-03T06:11:06;19.67;;;12.60;;
6143;SDS011;3103;49.492;8.474;2023-03-03T06:13:33;20.90;;;12.00;;
6143;SDS011;3103;49.492;8.474;2023-03-03T06:15:59;23.20;;;12.00;;
6143;SDS011;3103;49.492;8.474;2023-03-03T06:18:26;21.37;;;11.77;;
6143;SDS011;3103;49.492;8.474;2023-03-03T06:20:53;25.93;;;12.20;;
6143;SDS011;3103;49.492;8.474;2023-03-03T06:23:20;21.37;;;12.37;;
6143;SDS011;3103;49.492;8.474;2023-03-03T06:25:47;23.67;;;13.00;;
6143;SDS011;3103;49.492;8.474;2023-03-03T06:28:14;28.13;;;12.37;;
6143;SDS011;3103;49.492;8.474;2023-03-03T06:30:40;36.90;;;13.17;;
6143;SDS011;3103;49.492;8.474;2023-03-03T06:33:07;25.43;;;13.03;;
6143;SDS011;3103;49.492;8.474;2023-03-03T06:35:34;29.27;;;12.77;;
6143;SDS011;3103;49.492;8.474;2023-03-03T06:38:00;28.93;;;13.10;;
6143;SDS011;3103;49.492;8.474;2023-03-03T06:40:28;26.43;;;14.20;;
6143;SDS011;3103;49.492;8.474;2023-03-03T06:42:54;22.90;;;12.07;;
6143;SDS011;3103;49.492;8.474;2023-03-03T06:45:21;21.53;;;12.67;;
6143;SDS011;3103;49.492;8.474;2023-03-03T06:47:48;23.03;;;12.67;;
6143;SDS011;3103;49.492;8.474;2023-03-03T06:50:15;20.70;;;12.67;;
6143;SDS011;3103;49.492;8.474;2023-03-03T06:52:45;22.40;;;12.33;;
6143;SDS011;3103;49.492;8.474;2023-03-03T06:55:12;33.37;;;14.67;;
6143;SDS011;3103;49.492;8.474;2023-03-03T06:57:46;31.33;;;14.07;;
6143;SDS011;3103;49.492;8.474;2023-03-03T07:00:14;30.53;;;14.50;;
6143;SDS011;3103;49.492;8.474;2023-03-03T07:02:57;28.60;;;13.77;;
6143;SDS011;3103;49.492;8.474;2023-03-03T07:05:26;34.10;;;13.60;;
6143;SDS011;3103;49.492;8.474;2023-03-03T07:07:55;23.80;;;12.90;;
6143;SDS011;3103;49.492;8.474;2023-03-03T07:10:26;19.63;;;12.00;;
6143;SDS011;3103;49.492;8.474;2023-03-03T07:12:55;21.03;;;13.57;;
6143;SDS011;3103;49.492;8.474;2023-03-03T07:15:39;25.00;;;13.73;;
6143;SDS011;3103;49.492;8.474;2023-03-03T07:18:10;23.87;;;13.10;;
6143;SDS011;3103;49.492;8.474;2023-03-03T07:20:49;23.17;;;14.03;;
6143;SDS011;3103;49.492;8.474;2023-03-03T07:23:20;20.77;;;12.83;;
6143;SDS011;3103;49.492;8.474;2023-03-03T07:25:50;25.77;;;14.23;;
6143;SDS011;3103;49.492;8.474;2023-03-03T07:28:27;27.43;;;14.90;;
6143;SDS011;3103;49.492;8.474;2023-03-03T07:30:56;23.00;;;14.53;;
6143;SDS011;3103;49.492;8.474;2023-03-03T07:33:28;28.53;;;14.30;;
6143;SDS011;3103;49.492;8.474;2023-03-03T07:35:59;25.27;;;14.00;;
6143;SDS011;3103;49.492;8.474;2023-03-03T07:38:29;28.03;;;14.37;;
6143;SDS011;3103;49.492;8.474;2023-03-03T07:41:00;21.97;;;13.67;;
6143;SDS011;3103;49.492;8.474;2023-03-03T07:43:39;23.83;;;15.23;;
6143;SDS011;3103;49.492;8.474;2023-03-03T07:48:36;26.23;;;13.93;;
6143;SDS011;3103;49.492;8.474;2023-03-03T07:51:11;27.63;;;13.87;;
6143;SDS011;3103;49.492;8.474;2023-03-03T07:53:44;31.87;;;14.87;;
6143;SDS011;3103;49.492;8.474;2023-03-03T07:56:18;22.77;;;13.33;;
6143;SDS011;3103;49.492;8.474;2023-03-03T07:58:52;22.13;;;14.40;;
6143;SDS011;3103;49.492;8.474;2023-03-03T08:01:28;26.13;;;14.90;;
6143;SDS011;3103;49.492;8.474;2023-03-03T08:04:12;23.47;;;14.40;;
6143;SDS011;3103;49.492;8.474;2023-03-03T08:06:53;35.03;;;15.20;;
6143;SDS011;3103;49.492;8.474;2023-03-03T08:10:07;24.73;;;15.03;;
6143;SDS011;3103;49.492;8.474;2023-03-03T08:12:27;32.50;;;14.80;;
6143;SDS011;3103;49.492;8.474;2023-03-03T08:18:01;29.97;;;15.17;;
6143;SDS011;3103;49.492;8.474;2023-03-03T08:20:42;26.60;;;14.70;;
6143;SDS011;3103;49.492;8.474;2023-03-03T08:23:12;30.60;;;16.70;;
6143;SDS011;3103;49.492;8.474;2023-03-03T08:25:39;25.67;;;15.40;;
6143;SDS011;3103;49.492;8.474;2023-03-03T08:28:08;28.33;;;16.47;;
6143;SDS011;3103;49.492;8.474;2023-03-03T08:30:35;31.27;;;15.93;;
6143;SDS011;3103;49.492;8.474;2023-03-03T08:33:02;29.33;;;15.33;;
6143;SDS011;3103;49.492;8.474;2023-03-03T08:35:29;32.60;;;18.30;;
6143;SDS011;3103;49.492;8.474;2023-03-03T08:37:56;24.87;;;16.50;;
6143;SDS011;3103;49.492;8.474;2023-03-03T08:40:23;25.73;;;16.37;;
6143;SDS011;3103;49.492;8.474;2023-03-03T08:42:50;31.07;;;17.63;;
6143;SDS011;3103;49.492;8.474;2023-03-03T08:45:17;32.60;;;18.53;;
6143;SDS011;3103;49.492;8.474;2023-03-03T08:47:44;27.83;;;17.33;;
6143;SDS011;3103;49.492;8.474;2023-03-03T08:50:11;30.70;;;17.27;;
6143;SDS011;3103;49.492;8.474;2023-03-03T08:52:38;32.50;;;18.50;;
6143;SDS011;3103;49.492;8.474;2023-03-03T08:55:05;29.73;;;17.17;;
6143;SDS011;3103;49.492;8.474;2023-03-03T08:57:34;33.47;;;17.47;;
6143;SDS011;3103;49.492;8.474;2023-03-03T09:00:01;37.60;;;19.37;;
6143;SDS011;3103;49.492;8.474;2023-03-03T09:02:28;33.77;;;18.43;;
6143;SDS011;3103;49.492;8.474;2023-03-03T09:04:55;29.97;;;19.13;;
6143;SDS011;3103;49.492;8.474;2023-03-03T09:07:22;37.73;;;19.77;;
6143;SDS011;3103;49.492;8.474;2023-03-03T09:09:48;32.23;;;18.17;;
6143;SDS011;3103;49.492;8.474;2023-03-03T09:12:16;27.57;;;17.07;;
6143;SDS011;3103;49.492;8.474;2023-03-03T09:14:48;28.50;;;16.27;;
6143;SDS011;3103;49.492;8.474;2023-03-03T09:17:28;25.00;;;16.47;;
6143;SDS011;3103;49.492;8.474;2023-03-03T09:20:01;25.07;;;16.00;;
6143;SDS011;3103;49.492;8.474;2023-03-03T09:22:42;28.73;;;16.10;;
6143;SDS011;3103;49.492;8.474;2023-03-03T09:25:16;28.80;;;16.97;;
6143;SDS011;3103;49.492;8.474;2023-03-03T09:27:47;28.17;;;16.83;;
6143;SDS011;3103;49.492;8.474;2023-03-03T09:38:47;27.07;;;16.37;;
6143;SDS011;3103;49.492;8.474;2023-03-03T09:46:31;26.33;;;16.27;;
6143;SDS011;3103;49.492;8.474;2023-03-03T09:55:02;32.03;;;17.67;;
6143;SDS011;3103;49.492;8.474;2023-03-03T10:00:43;29.60;;;17.17;;
6143;SDS011;3103;49.492;8.474;2023-03-03T10:12:26;32.40;;;18.80;;
6143;SDS011;3103;49.492;8.474;2023-03-03T10:15:02;31.90;;;18.00;;
6143;SDS011;3103;49.492;8.474;2023-03-03T10:17:57;28.50;;;17.53;;
6143;SDS011;3103;49.492;8.474;2023-03-03T10:23:46;34.27;;;18.07;;
6143;SDS011;3103;49.492;8.474;2023-03-03T10:26:46;33.80;;;18.80;;
6143;SDS011;3103;49.492;8.474;2023-03-03T10:32:35;29.03;;;17.20;;
6143;SDS011;3103;49.492;8.474;2023-03-03T10:46:10;30.93;;;17.97;;
6143;SDS011;3103;49.492;8.474;2023-03-03T11:00:39;34.23;;;19.23;;
6143;SDS011;3103;49.492;8.474;2023-03-03T11:03:17;30.23;;;18.33;;
6143;SDS011;3103;49.492;8.474;2023-03-03T11:06:08;30.27;;;18.07;;
6143;SDS011;3103;49.492;8.474;2023-03-03T11:08:56;32.37;;;18.07;;
6143;SDS011;3103;49.492;8.474;2023-03-03T11:12:04;33.07;;;18.43;;
6143;SDS011;3103;49.492;8.474;2023-03-03T11:14:37;29.37;;;17.67;;
6143;SDS011;3103;49.492;8.474;2023-03-03T11:21:01;33.50;;;17.97;;
6143;SDS011;3103;49.492;8.474;2023-03-03T11:23:30;39.40;;;19.97;;
6143;SDS011;3103;49.492;8.474;2023-03-03T11:28:45;29.60;;;17.20;;
6143;SDS011;3103;49.492;8.474;2023-03-03T11:31:37;33.13;;;18.07;;
6143;SDS011;3103;49.492;8.474;2023-03-03T11:34:31;28.50;;;17.77;;
6143;SDS011;3103;49.492;8.474;2023-03-03T11:37:15;35.63;;;18.67;;
6143;SDS011;3103;49.492;8.474;2023-03-03T11:39:44;36.80;;;18.03;;
6143;SDS011;3103;49.492;8.474;2023-03-03T11:42:16;33.83;;;17.93;;
6143;SDS011;3103;49.492;8.474;2023-03-03T11:44:48;36.03;;;22.57;;
6143;SDS011;3103;49.492;8.474;2023-03-03T11:47:33;71.50;;;37.13;;
6143;SDS011;3103;49.492;8.474;2023-03-03T11:50:08;31.20;;;19.47;;
6143;SDS011;3103;49.492;8.474;2023-03-03T11:52:47;32.27;;;18.47;;
6143;SDS011;3103;49.492;8.474;2023-03-03T11:55:37;40.90;;;24.00;;
6143;SDS011;3103;49.492;8.474;2023-03-03T11:58:07;48.37;;;25.43;;
6143;SDS011;3103;49.492;8.474;2023-03-03T12:00:50;43.00;;;24.97;;
6143;SDS011;3103;49.492;8.474;2023-03-03T12:20:08;30.13;;;17.50;;
6143;SDS011;3103;49.492;8.474;2023-03-03T12:22:59;29.37;;;17.23;;
6143;SDS011;3103;49.492;8.474;2023-03-03T12:25:38;32.27;;;19.77;;
6143;SDS011;3103;49.492;8.474;2023-03-03T12:28:30;24.90;;;15.87;;
6143;SDS011;3103;49.492;8.474;2023-03-03T12:33:58;30.60;;;16.13;;
6143;SDS011;3103;49.492;8.474;2023-03-03T12:36:53;28.37;;;16.13;;
6143;SDS011;3103;49.492;8.474;2023-03-03T12:39:44;33.57;;;16.50;;
6143;SDS011;3103;49.492;8.474;2023-03-03T12:47:50;27.43;;;15.40;;
6143;SDS011;3103;49.492;8.474;2023-03-03T12:56:06;28.43;;;16.97;;
6143;SDS011;3103;49.492;8.474;2023-03-03T13:01:59;26.60;;;16.63;;
6143;SDS011;3103;49.492;8.474;2023-03-03T13:04:35;30.23;;;16.73;;
6143;SDS011;3103;49.492;8.474;2023-03-03T13:07:50;31.10;;;17.00;;
6143;SDS011;3103;49.492;8.474;2023-03-03T13:15:45;27.57;;;15.73;;
6143;SDS011;3103;49.492;8.474;2023-03-03T13:21:20;31.37;;;17.10;;
6143;SDS011;3103;49.492;8.474;2023-03-03T13:23:53;32.23;;;19.57;;
6143;SDS011;3103;49.492;8.474;2023-03-03T13:26:32;63.63;;;33.23;;
6143;SDS011;3103;49.492;8.474;2023-03-03T13:29:04;30.17;;;18.43;;
6143;SDS011;3103;49.492;8.474;2023-03-03T13:32:02;31.47;;;17.80;;
6143;SDS011;3103;49.492;8.474;2023-03-03T13:34:54;29.80;;;19.10;;
6143;SDS011;3103;49.492;8.474;2023-03-03T13:37:35;33.77;;;20.53;;
6143;SDS011;3103;49.492;8.474;2023-03-03T13:42:39;53.67;;;32.30;;
6143;SDS011;3103;49.492;8.474;2023-03-03T13:48:09;40.83;;;21.73;;
6143;SDS011;3103;49.492;8.474;2023-03-03T13:50:57;30.53;;;18.13;;
6143;SDS011;3103;49.492;8.474;2023-03-03T13:56:29;29.67;;;16.73;;
6143;SDS011;3103;49.492;8.474;2023-03-03T14:02:09;25.33;;;16.23;;
6143;SDS011;3103;49.492;8.474;2023-03-03T14:07:42;33.73;;;18.93;;
6143;SDS011;3103;49.492;8.474;2023-03-03T14:10:24;32.70;;;16.20;;
6143;SDS011;3103;49.492;8.474;2023-03-03T14:13:13;26.13;;;16.27;;
6143;SDS011;3103;49.492;8.474;2023-03-03T14:15:54;35.70;;;18.10;;
6143;SDS011;3103;49.492;8.474;2023-03-03T14:21:13;25.90;;;15.30;;
6143;SDS011;3103;49.492;8.474;2023-03-03T14:23:52;27.10;;;15.90;;
6143;SDS011;3103;49.492;8.474;2023-03-03T14:26:27;27.33;;;15.67;;
6143;SDS011;3103;49.492;8.474;2023-03-03T14:29:19;26.63;;;15.30;;
6143;SDS011;3103;49.492;8.474;2023-03-03T14:31:45;24.53;;;14.93;;
6143;SDS011;3103;49.492;8.474;2023-03-03T14:34:15;24.57;;;14.63;;
6143;SDS011;3103;49.492;8.474;2023-03-03T14:36:59;27.17;;;14.63;;
6143;SDS011;3103;49.492;8.474;2023-03-03T14:42:48;24.47;;;14.53;;
6143;SDS011;3103;49.492;8.474;2023-03-03T14:45:28;24.00;;;13.40;;
6143;SDS011;3103;49.492;8.474;2023-03-03T14:47:59;25.40;;;15.70;;
6143;SDS011;3103;49.492;8.474;2023-03-03T14:50:37;27.00;;;15.80;;
6143;SDS011;3103;49.492;8.474;2023-03-03T14:53:09;23.97;;;13.77;;
6143;SDS011;3103;49.492;8.474;2023-03-03T14:55:46;30.17;;;17.70;;
6143;SDS011;3103;49.492;8.474;2023-03-03T14:58:25;24.77;;;13.97;;
6143;SDS011;3103;49.492;8.474;2023-03-03T15:03:45;27.97;;;17.23;;
6143;SDS011;3103;49.492;8.474;2023-03-03T15:06:27;29.57;;;16.67;;
6143;SDS011;3103;49.492;8.474;2023-03-03T15:09:18;30.40;;;18.43;;
6143;SDS011;3103;49.492;8.474;2023-03-03T15:11:46;50.03;;;30.07;;
6143;SDS011;3103;49.492;8.474;2023-03-03T15:14:17;25.00;;;13.37;;
6143;SDS011;3103;49.492;8.474;2023-03-03T15:16:49;28.47;;;15.13;;
6143;SDS011;3103;49.492;8.474;2023-03-03T15:19:21;18.20;;;11.03;;
6143;SDS011;3103;49.492;8.474;2023-03-03T15:22:19;24.30;;;14.40;;
6143;SDS011;3103;49.492;8.474;2023-03-03T15:25:08;23.40;;;15.77;;
6143;SDS011;3103;49.492;8.474;2023-03-03T15:27:37;23.70;;;13.50;;
6143;SDS011;3103;49.492;8.474;2023-03-03T15:30:12;22.47;;;12.93;;
6143;SDS011;3103;49.492;8.474;2023-03-03T15:32:46;25.23;;;13.20;;
6143;SDS011;3103;49.492;8.474;2023-03-03T15:41:03;23.27;;;12.30;;
6143;SDS011;3103;49.492;8.474;2023-03-03T15:46:41;21.07;;;11.03;;
6143;SDS011;3103;49.492;8.474;2023-03-03T15:49:33;19.43;;;11.90;;
6143;SDS011;3103;49.492;8.474;2023-03-03T15:52:27;18.67;;;10.63;;
6143;SDS011;3103;49.492;8.474;2023-03-03T15:55:17;19.97;;;10.53;;
6143;SDS011;3103;49.492;8.474;2023-03-03T16:03:37;22.03;;;11.27;;
6143;SDS011;3103;49.492;8.474;2023-03-03T16:09:00;30.37;;;16.57;;
6143;SDS011;3103;49.492;8.474;2023-03-03T16:11:44;20.80;;;9.67;;
6143;SDS011;3103;49.492;8.474;2023-03-03T16:17:14;24.07;;;13.77;;
6143;SDS011;3103;49.492;8.474;2023-03-03T16:22:39;24.40;;;12.80;;
6143;SDS011;3103;49.492;8.474;2023-03-03T16:28:09;21.27;;;11.60;;
6143;SDS011;3103;49.492;8.474;2023-03-03T16:30:51;17.00;;;9.77;;
6143;SDS011;3103;49.492;8.474;2023-03-03T16:33:31;23.87;;;13.60;;
6143;SDS011;3103;49.492;8.474;2023-03-03T16:36:17;22.27;;;12.53;;
6143;SDS011;3103;49.492;8.474;2023-03-03T16:41:59;23.53;;;14.40;;
6143;SDS011;3103;49.492;8.474;2023-03-03T16:49:52;16.30;;;9.97;;
6143;SDS011;3103;49.492;8.474;2023-03-03T16:52:35;15.60;;;10.47;;
6143;SDS011;3103;49.492;8.474;2023-03-03T17:06:18;18.20;;;9.80;;
6143;SDS011;3103;49.492;8.474;2023-03-03T17:15:02;19.67;;;12.37;;
6143;SDS011;3103;49.492;8.474;2023-03-03T17:17:43;19.43;;;11.43;;
6143;SDS011;3103;49.492;8.474;2023-03-03T17:26:26;21.43;;;11.93;;
6143;SDS011;3103;49.492;8.474;2023-03-03T17:29:08;22.30;;;12.70;;
6143;SDS011;3103;49.492;8.474;2023-03-03T17:35:36;24.23;;;13.03;;
6143;SDS011;3103;49.492;8.474;2023-03-03T17:37:55;24.50;;;13.57;;
6143;SDS011;3103;49.492;8.474;2023-03-03T17:46:08;15.30;;;10.50;;
6143;SDS011;3103;49.492;8.474;2023-03-03T17:48:54;16.50;;;10.13;;
6143;SDS011;3103;49.492;8.474;2023-03-03T17:51:37;16.63;;;9.77;;
6143;SDS011;3103;49.492;8.474;2023-03-03T17:57:05;14.00;;;8.87;;
6143;SDS011;3103;49.492;8.474;2023-03-03T18:16:51;17.27;;;10.23;;
6143;SDS011;3103;49.492;8.474;2023-03-03T18:22:31;17.27;;;8.77;;
6143;SDS011;3103;49.492;8.474;2023-03-03T18:25:13;15.77;;;8.43;;
6143;SDS011;3103;49.492;8.474;2023-03-03T18:30:27;11.93;;;7.70;;
6143;SDS011;3103;49.492;8.474;2023-03-03T18:33:00;14.17;;;8.27;;
6143;SDS011;3103;49.492;8.474;2023-03-03T18:35:33;12.57;;;8.10;;
6143;SDS011;3103;49.492;8.474;2023-03-03T18:40:52;13.90;;;8.53;;
6143;SDS011;3103;49.492;8.474;2023-03-03T18:48:49;16.43;;;9.57;;
6143;SDS011;3103;49.492;8.474;2023-03-03T19:04:54;30.77;;;17.00;;
6143;SDS011;3103;49.492;8.474;2023-03-03T19:12:50;13.07;;;8.73;;
6143;SDS011;3103;49.492;8.474;2023-03-03T19:18:00;17.97;;;11.03;;
6143;SDS011;3103;49.492;8.474;2023-03-03T19:20:39;15.00;;;8.83;;
6143;SDS011;3103;49.492;8.474;2023-03-03T19:23:13;19.20;;;10.60;;
6143;SDS011;3103;49.492;8.474;2023-03-03T19:25:42;19.70;;;11.50;;
6143;SDS011;3103;49.492;8.474;2023-03-03T19:28:24;18.17;;;10.40;;
6143;SDS011;3103;49.492;8.474;2023-03-03T19:31:10;15.87;;;8.90;;
6143;SDS011;3103;49.492;8.474;2023-03-03T19:33:49;16.73;;;8.77;;
6143;SDS011;3103;49.492;8.474;2023-03-03T19:36:35;14.93;;;9.47;;
6143;SDS011;3103;49.492;8.474;2023-03-03T19:39:27;16.50;;;9.77;;
6143;SDS011;3103;49.492;8.474;2023-03-03T19:42:20;13.73;;;8.57;;
6143;SDS011;3103;49.492;8.474;2023-03-03T19:47:50;17.43;;;8.73;;
6143;SDS011;3103;49.492;8.474;2023-03-03T19:50:40;19.13;;;9.23;;
6143;SDS011;3103;49.492;8.474;2023-03-03T19:53:34;12.73;;;8.30;;
6143;SDS011;3103;49.492;8.474;2023-03-03T20:04:45;17.83;;;9.77;;
6143;SDS011;3103;49.492;8.474;2023-03-03T20:07:26;15.37;;;8.97;;
6143;SDS011;3103;49.492;8.474;2023-03-03T20:12:45;19.70;;;11.97;;
6143;SDS011;3103;49.492;8.474;2023-03-03T20:15:27;18.30;;;11.17;;